createdAt,value
2018-03-07T00:01:10.305Z,89.92
2018-03-07T00:02:33.392Z,89.86
2018-03-07T00:04:04.581Z,89.91
2018-03-07T00:05:31.774Z,89.79
2018-03-07T00:06:58.924Z,89.81
2018-03-07T00:08:22.069Z,89.86
2018-03-07T00:09:53.544Z,89.91
2018-03-07T00:11:20.825Z,89.96
2018-03-07T00:12:47.861Z,89.94
2018-03-07T00:14:15.106Z,89.96
2018-03-07T00:15:42.155Z,89.99
2018-03-07T00:17:05.370Z,90.05
2018-03-07T00:18:36.339Z,90.08
2018-03-07T00:20:03.342Z,90.22
2018-03-07T00:21:26.394Z,90.23
2018-03-07T00:22:57.498Z,90.22
2018-03-07T00:24:24.678Z,90.28
2018-03-07T00:25:51.808Z,90.31
2018-03-07T00:27:18.975Z,90.42
2018-03-07T00:28:42.067Z,90.50
2018-03-07T00:30:13.328Z,90.50
2018-03-07T00:31:40.341Z,90.64
2018-03-07T00:33:03.037Z,90.66
2018-03-07T00:34:34.164Z,90.65
2018-03-07T00:35:57.280Z,90.66
2018-03-07T00:37:24.471Z,90.62
2018-03-07T00:38:51.578Z,90.68
2018-03-07T00:40:18.502Z,90.61
2018-03-07T00:41:45.560Z,90.61
2018-03-07T00:43:16.807Z,90.63
2018-03-07T00:44:40.063Z,90.55
2018-03-07T00:46:07.272Z,90.53
2018-03-07T00:47:34.371Z,90.61
2018-03-07T00:49:05.442Z,90.58
2018-03-07T00:50:32.649Z,90.51
2018-03-07T00:51:59.863Z,90.58
2018-03-07T00:53:26.942Z,90.61
2018-03-07T00:54:50.033Z,90.59
2018-03-07T00:56:21.249Z,90.78
2018-03-07T00:57:44.403Z,90.79
2018-03-07T00:59:11.572Z,90.91
2018-03-07T01:00:38.678Z,90.77
2018-03-07T01:02:05.912Z,90.84
2018-03-07T01:03:33.044Z,90.78
2018-03-07T01:05:04.064Z,90.68
2018-03-07T01:06:27.228Z,90.79
2018-03-07T01:07:58.392Z,90.68
2018-03-07T01:09:25.622Z,90.64
2018-03-07T01:10:52.805Z,90.59
2018-03-07T01:12:19.862Z,90.69
2018-03-07T01:13:42.971Z,90.66
2018-03-07T01:15:14.150Z,90.74
2018-03-07T01:16:37.377Z,90.84
2018-03-07T01:18:04.405Z,90.93
2018-03-07T01:19:31.822Z,90.87
2018-03-07T01:20:58.940Z,90.92
2018-03-07T01:22:29.962Z,90.89
2018-03-07T01:23:56.955Z,91.02
2018-03-07T01:25:24.128Z,91.07
2018-03-07T01:26:51.228Z,91.07
2018-03-07T01:28:14.386Z,91.14
2018-03-07T01:29:41.719Z,91.32
2018-03-07T01:31:12.817Z,91.42
2018-03-07T01:32:35.955Z,91.43
2018-03-07T01:34:03.025Z,91.45
2018-03-07T01:35:30.224Z,91.37
2018-03-07T01:36:57.415Z,91.37
2018-03-07T01:38:28.575Z,91.28
2018-03-07T01:39:55.504Z,91.32
2018-03-07T01:41:22.690Z,91.25
2018-03-07T01:42:49.979Z,91.24
2018-03-07T01:44:12.948Z,91.33
2018-03-07T01:45:40.113Z,91.34
2018-03-07T01:47:07.122Z,91.36
2018-03-07T01:48:34.206Z,91.43
2018-03-07T01:50:01.277Z,91.38
2018-03-07T01:51:28.430Z,91.49
2018-03-07T01:52:55.525Z,91.53
2018-03-07T01:54:26.716Z,91.57
2018-03-07T01:55:49.935Z,91.70
2018-03-07T01:57:21.194Z,91.79
2018-03-07T01:58:48.412Z,91.86
2018-03-07T02:00:11.699Z,91.90
2018-03-07T02:01:38.857Z,91.90
2018-03-07T02:03:09.959Z,91.99
2018-03-07T02:04:37.068Z,92.20
2018-03-07T02:06:00.374Z,92.32
2018-03-07T02:07:27.594Z,92.46
2018-03-07T02:08:54.756Z,92.58
2018-03-07T02:11:52.926Z,92.71
2018-03-07T02:13:20.081Z,92.80
2018-03-07T02:14:43.334Z,92.89
2018-03-07T02:16:10.330Z,93.04
2018-03-07T02:17:37.548Z,93.01
2018-03-07T02:19:04.528Z,93.06
2018-03-07T02:20:31.938Z,93.08
2018-03-07T02:22:03.016Z,93.19
2018-03-07T02:23:26.255Z,93.45
2018-03-07T02:24:57.358Z,93.47
2018-03-07T02:26:20.445Z,93.28
2018-03-07T02:27:51.657Z,93.14
2018-03-07T02:29:18.830Z,93.12
2018-03-07T02:30:42.134Z,93.12
2018-03-07T02:32:09.240Z,92.94
2018-03-07T02:33:40.387Z,92.95
2018-03-07T02:35:03.501Z,92.82
2018-03-07T02:36:30.527Z,92.64
2018-03-07T02:37:57.735Z,92.70
2018-03-07T02:39:28.946Z,92.66
2018-03-07T02:40:52.146Z,92.65
2018-03-07T02:42:19.282Z,92.54
2018-03-07T02:43:46.366Z,92.71
2018-03-07T02:45:13.656Z,92.98
2018-03-07T02:46:44.698Z,93.25
2018-03-07T02:48:07.953Z,93.59
2018-03-07T02:49:35.117Z,93.81
2018-03-07T02:51:06.034Z,93.87
2018-03-07T02:52:29.293Z,94.18
2018-03-07T02:53:56.414Z,94.35
2018-03-07T02:55:27.608Z,94.51
2018-03-07T02:56:54.860Z,94.65
2018-03-07T02:58:22.011Z,94.83
2018-03-07T02:59:49.182Z,95.08
2018-03-07T03:01:16.208Z,95.11
2018-03-07T03:02:43.306Z,95.08
2018-03-07T03:04:06.510Z,95.02
2018-03-07T03:05:37.397Z,95.05
2018-03-07T03:07:00.687Z,94.99
2018-03-07T03:08:31.889Z,95.07
2018-03-07T03:09:55.155Z,95.02
2018-03-07T03:11:26.128Z,95.00
2018-03-07T03:12:53.308Z,95.01
2018-03-07T03:14:16.521Z,95.10
2018-03-07T03:15:47.633Z,95.14
2018-03-07T03:17:10.625Z,95.24
2018-03-07T03:18:37.854Z,95.21
2018-03-07T03:20:04.865Z,95.29
2018-03-07T03:21:35.852Z,95.21
2018-03-07T03:22:58.662Z,95.40
2018-03-07T03:24:29.619Z,95.45
2018-03-07T03:25:55.901Z,95.56
2018-03-07T03:27:19.077Z,95.75
2018-03-07T03:28:46.286Z,95.85
2018-03-07T03:30:17.364Z,95.91
2018-03-07T03:31:44.326Z,96.06
2018-03-07T03:33:11.524Z,96.20
2018-03-07T03:34:38.609Z,96.37
2018-03-07T03:36:05.430Z,96.43
2018-03-07T03:37:32.610Z,96.57
2018-03-07T03:38:55.850Z,96.62
2018-03-07T03:40:27.103Z,96.70
2018-03-07T03:41:54.313Z,96.84
2018-03-07T03:43:17.459Z,96.91
2018-03-07T03:44:48.656Z,96.99
2018-03-07T03:46:15.794Z,97.10
2018-03-07T03:47:38.996Z,97.09
2018-03-07T03:49:09.946Z,97.06
2018-03-07T03:50:32.978Z,97.16
2018-03-07T03:52:04.052Z,97.16
2018-03-07T03:53:31.133Z,97.26
2018-03-07T03:54:53.899Z,97.48
2018-03-07T03:56:20.975Z,97.55
2018-03-07T03:57:51.996Z,97.69
2018-03-07T03:59:14.983Z,97.79
2018-03-07T04:00:46.074Z,97.93
2018-03-07T04:02:09.223Z,98.00
2018-03-07T04:03:40.366Z,98.07
2018-03-07T04:05:03.373Z,98.31
2018-03-07T04:06:30.365Z,98.45
2018-03-07T04:08:01.447Z,98.53
2018-03-07T04:09:24.637Z,98.51
2018-03-07T04:12:18.866Z,98.67
2018-03-07T04:13:49.974Z,98.69
2018-03-07T04:15:16.906Z,98.76
2018-03-07T04:16:40.099Z,98.81
2018-03-07T04:18:07.222Z,98.85
2018-03-07T04:19:34.381Z,98.98
2018-03-07T04:21:05.428Z,99.02
2018-03-07T04:22:32.633Z,99.12
2018-03-07T04:23:59.834Z,99.11
2018-03-07T04:25:22.972Z,99.15
2018-03-07T04:26:54.007Z,99.25
2018-03-07T04:28:21.240Z,99.27
2018-03-07T04:29:44.327Z,99.20
2018-03-07T04:31:15.484Z,99.22
2018-03-07T04:32:38.584Z,99.23
2018-03-07T04:34:09.310Z,99.20
2018-03-07T04:35:32.273Z,99.17
2018-03-07T04:37:03.487Z,99.12
2018-03-07T04:38:30.741Z,99.23
2018-03-07T04:39:57.682Z,99.24
2018-03-07T04:41:24.749Z,99.24
2018-03-07T04:42:47.992Z,99.23
2018-03-07T04:44:19.033Z,99.33
2018-03-07T04:45:42.375Z,99.42
2018-03-07T04:47:09.430Z,99.53
2018-03-07T04:48:40.334Z,99.53
2018-03-07T04:50:07.447Z,99.53
2018-03-07T04:51:30.698Z,99.58
2018-03-07T04:52:57.413Z,99.70
2018-03-07T04:54:28.474Z,99.69
2018-03-07T04:55:55.884Z,99.75
2018-03-07T04:57:18.985Z,99.70
2018-03-07T04:58:49.942Z,99.67
2018-03-07T05:00:16.978Z,99.71
2018-03-07T05:01:43.963Z,99.71
2018-03-07T05:03:10.921Z,99.73
2018-03-07T05:04:38.027Z,99.78
2018-03-07T05:06:05.368Z,99.78
2018-03-07T05:07:28.020Z,99.66
2018-03-07T05:08:55.358Z,99.72
2018-03-07T05:10:26.489Z,99.62
2018-03-07T05:11:49.729Z,99.64
2018-03-07T05:13:16.775Z,99.54
2018-03-07T05:14:43.958Z,99.35
2018-03-07T05:16:15.090Z,99.21
2018-03-07T05:17:42.317Z,99.06
2018-03-07T05:19:09.463Z,98.89
2018-03-07T05:20:32.549Z,98.88
2018-03-07T05:21:59.524Z,98.67
2018-03-07T05:23:26.592Z,98.67
2018-03-07T05:24:57.616Z,98.58
2018-03-07T05:26:20.848Z,98.72
2018-03-07T05:27:48.139Z,98.87
2018-03-07T05:29:19.257Z,98.97
2018-03-07T05:30:42.561Z,99.01
2018-03-07T05:32:09.599Z,99.19
2018-03-07T05:33:40.620Z,99.32
2018-03-07T05:35:07.659Z,99.45
2018-03-07T05:36:34.768Z,99.55
2018-03-07T05:37:58.133Z,99.48
2018-03-07T05:39:29.296Z,99.34
2018-03-07T05:40:52.599Z,99.36
2018-03-07T05:42:23.684Z,99.37
2018-03-07T05:43:50.872Z,99.32
2018-03-07T05:45:13.963Z,99.24
2018-03-07T05:46:45.218Z,99.33
2018-03-07T05:48:12.160Z,99.32
2018-03-07T05:49:35.541Z,99.28
2018-03-07T05:51:06.257Z,99.30
2018-03-07T05:52:29.476Z,99.30
2018-03-07T05:54:00.534Z,99.27
2018-03-07T05:55:23.781Z,99.47
2018-03-07T05:56:55.043Z,99.36
2018-03-07T05:58:22.174Z,99.39
2018-03-07T05:59:49.182Z,99.39
2018-03-07T06:01:16.128Z,99.37
2018-03-07T06:02:43.346Z,99.52
2018-03-07T06:04:10.405Z,99.68
2018-03-07T06:05:33.516Z,99.64
2018-03-07T06:07:00.746Z,99.80
2018-03-07T06:08:32.036Z,99.72
2018-03-07T06:09:55.074Z,99.75
2018-03-07T06:11:26.087Z,99.88
2018-03-07T06:12:49.174Z,99.86
2018-03-07T06:14:20.275Z,99.93
2018-03-07T06:15:47.786Z,99.84
2018-03-07T06:17:10.958Z,99.82
2018-03-07T06:18:41.906Z,99.82
2018-03-07T06:20:05.094Z,99.74
2018-03-07T06:21:36.031Z,99.78
2018-03-07T06:23:03.195Z,99.66
2018-03-07T06:24:32.191Z,99.59
2018-03-07T06:25:57.408Z,99.55
2018-03-07T06:27:20.624Z,99.49
2018-03-07T06:28:51.817Z,99.44
2018-03-07T06:30:19.024Z,99.26
2018-03-07T06:31:42.315Z,99.05
2018-03-07T06:33:09.500Z,99.08
2018-03-07T06:34:40.414Z,99.13
2018-03-07T06:36:07.412Z,99.08
2018-03-07T06:37:34.565Z,99.24
2018-03-07T06:39:01.637Z,99.21
2018-03-07T06:40:28.736Z,99.40
2018-03-07T06:41:55.729Z,99.48
2018-03-07T06:43:22.849Z,99.45
2018-03-07T06:44:46.141Z,99.47
2018-03-07T06:46:13.217Z,99.48
2018-03-07T06:47:40.254Z,99.55
2018-03-07T06:49:11.234Z,99.57
2018-03-07T06:50:38.336Z,99.61
2018-03-07T06:52:01.603Z,99.52
2018-03-07T06:53:32.817Z,99.51
2018-03-07T06:54:56.038Z,99.48
2018-03-07T06:56:23.363Z,99.38
2018-03-07T06:57:50.506Z,99.31
2018-03-07T06:59:17.679Z,99.23
2018-03-07T07:00:48.857Z,99.27
2018-03-07T07:02:11.895Z,99.26
2018-03-07T07:03:38.946Z,99.36
2018-03-07T07:05:09.927Z,99.34
2018-03-07T07:06:33.068Z,99.30
2018-03-07T07:08:00.298Z,99.29
2018-03-07T07:09:31.289Z,99.33
2018-03-07T07:10:54.431Z,99.16
2018-03-07T07:12:21.542Z,99.10
2018-03-07T07:13:48.803Z,99.04
2018-03-07T07:15:19.189Z,99.08
2018-03-07T07:16:42.077Z,99.24
2018-03-07T07:18:13.193Z,99.21
2018-03-07T07:19:36.091Z,99.21
2018-03-07T07:21:03.096Z,99.23
2018-03-07T07:22:34.159Z,99.29
2018-03-07T07:23:57.076Z,99.19
2018-03-07T07:25:28.253Z,99.12
2018-03-07T07:26:55.480Z,99.11
2018-03-07T07:28:22.427Z,99.15
2018-03-07T07:29:45.667Z,99.14
2018-03-07T07:31:12.651Z,99.24
2018-03-07T07:32:43.797Z,99.21
2018-03-07T07:34:10.801Z,99.14
2018-03-07T07:35:37.936Z,99.35
2018-03-07T07:37:00.966Z,99.41
2018-03-07T07:38:32.089Z,99.40
2018-03-07T07:39:55.275Z,99.50
2018-03-07T07:41:22.272Z,99.46
2018-03-07T07:42:49.287Z,99.52
2018-03-07T07:44:20.368Z,99.52
2018-03-07T07:45:47.421Z,99.55
2018-03-07T07:47:14.601Z,99.55
2018-03-07T07:48:41.855Z,99.44
2018-03-07T07:50:04.937Z,99.44
2018-03-07T07:51:35.984Z,99.46
2018-03-07T07:52:59.261Z,99.49
2018-03-07T07:54:26.458Z,99.47
2018-03-07T07:55:53.554Z,99.43
2018-03-07T07:57:20.580Z,99.36
2018-03-07T07:58:47.740Z,99.37
2018-03-07T08:00:19.008Z,99.38
2018-03-07T08:01:42.207Z,99.41
2018-03-07T08:03:09.359Z,99.46
2018-03-07T08:04:36.521Z,99.40
2018-03-07T08:06:07.524Z,99.37
2018-03-07T08:07:34.654Z,99.38
2018-03-07T08:09:01.763Z,99.35
2018-03-07T08:10:24.584Z,99.27
2018-03-07T08:11:51.813Z,99.23
2018-03-07T08:13:22.895Z,99.23
2018-03-07T08:14:46.103Z,99.25
2018-03-07T08:16:17.234Z,99.21
2018-03-07T08:17:40.377Z,99.17
2018-03-07T08:19:07.460Z,99.17
2018-03-07T08:20:34.468Z,99.13
2018-03-07T08:22:01.627Z,99.00
2018-03-07T08:23:28.682Z,99.14
2018-03-07T08:24:55.887Z,99.17
2018-03-07T08:26:23.054Z,99.07
2018-03-07T08:27:50.119Z,99.14
2018-03-07T08:29:17.340Z,99.08
2018-03-07T08:30:48.657Z,99.14
2018-03-07T08:32:11.616Z,99.08
2018-03-07T08:33:42.786Z,99.04
2018-03-07T08:35:05.580Z,99.19
2018-03-07T08:36:32.597Z,98.99
2018-03-07T08:38:03.626Z,99.02
2018-03-07T08:39:30.840Z,98.96
2018-03-07T08:42:21.323Z,99.08
2018-03-07T08:43:52.361Z,99.07
2018-03-07T08:45:19.457Z,99.15
2018-03-07T08:46:42.528Z,99.08
2018-03-07T08:48:13.541Z,99.03
2018-03-07T08:49:36.793Z,98.92
2018-03-07T08:51:07.854Z,99.04
2018-03-07T08:52:31.109Z,98.97
2018-03-07T08:53:58.149Z,98.89
2018-03-07T08:55:25.411Z,98.97
2018-03-07T08:56:56.232Z,98.91
2018-03-07T08:58:23.554Z,98.73
2018-03-07T08:59:46.623Z,98.79
2018-03-07T09:01:13.829Z,98.71
2018-03-07T09:02:45.078Z,98.79
2018-03-07T09:04:08.198Z,98.70
2018-03-07T09:05:35.354Z,98.77
2018-03-07T09:07:02.449Z,98.97
2018-03-07T09:08:33.609Z,98.88
2018-03-07T09:09:56.725Z,98.82
2018-03-07T09:11:27.823Z,98.77
2018-03-07T09:12:51.032Z,98.74
2018-03-07T09:14:18.128Z,98.75
2018-03-07T09:15:49.257Z,98.68
2018-03-07T09:17:16.476Z,98.61
2018-03-07T09:18:43.612Z,98.58
2018-03-07T09:20:06.761Z,98.48
2018-03-07T09:21:37.892Z,98.50
2018-03-07T09:23:01.182Z,98.50
2018-03-07T09:24:28.449Z,98.53
2018-03-07T09:25:55.593Z,98.52
2018-03-07T09:27:22.859Z,98.57
2018-03-07T09:28:53.930Z,98.60
2018-03-07T09:30:17.197Z,98.63
2018-03-07T09:31:44.339Z,98.61
2018-03-07T09:33:11.623Z,98.62
2018-03-07T09:34:46.433Z,98.67
2018-03-07T09:36:05.668Z,98.62
2018-03-07T09:37:32.702Z,98.43
2018-03-07T09:38:59.927Z,98.43
2018-03-07T09:40:27.033Z,98.47
2018-03-07T09:41:54.365Z,98.64
2018-03-07T09:43:25.438Z,98.64
2018-03-07T09:44:52.625Z,98.60
2018-03-07T09:46:15.824Z,98.53
2018-03-07T09:47:42.941Z,98.72
2018-03-07T09:49:13.989Z,98.72
2018-03-07T09:50:37.252Z,98.61
2018-03-07T09:52:04.480Z,98.48
2018-03-07T09:53:35.539Z,98.62
2018-03-07T09:54:58.680Z,98.69
2018-03-07T09:56:30.011Z,98.53
2018-03-07T09:57:57.211Z,98.36
2018-03-07T09:59:20.440Z,98.24
2018-03-07T10:00:47.667Z,98.05
2018-03-07T10:02:15.025Z,98.18
2018-03-07T10:03:46.117Z,98.39
2018-03-07T10:05:13.190Z,98.54
2018-03-07T10:06:40.349Z,98.27
2018-03-07T10:08:03.604Z,98.18
2018-03-07T10:09:30.706Z,98.22
2018-03-07T10:10:57.755Z,98.00
2018-03-07T10:12:28.913Z,98.08
2018-03-07T10:13:56.014Z,98.14
2018-03-07T10:15:23.212Z,97.78
2018-03-07T10:16:46.463Z,98.04
2018-03-07T10:18:13.530Z,98.12
2018-03-07T10:19:44.607Z,98.23
2018-03-07T10:21:11.696Z,98.17
2018-03-07T10:22:34.712Z,98.17
2018-03-07T10:24:06.029Z,98.28
2018-03-07T10:25:29.198Z,98.26
2018-03-07T10:26:56.489Z,97.94
2018-03-07T10:28:27.587Z,98.13
2018-03-07T10:29:54.796Z,98.13
2018-03-07T10:31:22.019Z,98.06
2018-03-07T10:32:45.108Z,97.82
2018-03-07T10:34:16.171Z,97.85
2018-03-07T10:35:39.288Z,97.98
2018-03-07T10:37:06.524Z,98.08
2018-03-07T10:38:33.616Z,98.19
2018-03-07T10:40:04.858Z,98.18
2018-03-07T10:41:28.012Z,97.98
2018-03-07T10:42:55.118Z,98.11
2018-03-07T10:44:26.458Z,97.98
2018-03-07T10:45:53.479Z,98.07
2018-03-07T10:47:16.533Z,98.08
2018-03-07T10:48:43.807Z,97.97
2018-03-07T10:50:15.017Z,97.86
2018-03-07T10:51:42.179Z,98.01
2018-03-07T10:53:05.303Z,98.27
2018-03-07T10:54:36.259Z,98.36
2018-03-07T10:55:59.584Z,98.27
2018-03-07T10:57:26.626Z,98.38
2018-03-07T10:58:57.784Z,98.15
2018-03-07T11:00:21.033Z,98.19
2018-03-07T11:01:48.171Z,98.38
2018-03-07T11:03:15.321Z,98.38
2018-03-07T11:04:46.620Z,98.57
2018-03-07T11:06:09.686Z,98.52
2018-03-07T11:07:40.802Z,98.41
2018-03-07T11:09:07.826Z,98.39
2018-03-07T11:10:31.140Z,98.24
2018-03-07T11:12:02.348Z,98.01
2018-03-07T11:13:25.712Z,97.93
2018-03-07T11:14:56.934Z,97.59
2018-03-07T11:16:20.032Z,97.77
2018-03-07T11:17:47.205Z,98.01
2018-03-07T11:19:14.460Z,97.91
2018-03-07T11:20:41.641Z,98.21
2018-03-07T11:22:12.834Z,98.01
2018-03-07T11:23:36.164Z,97.94
2018-03-07T11:25:03.157Z,98.00
2018-03-07T11:26:30.438Z,97.61
2018-03-07T11:28:01.601Z,97.66
2018-03-07T11:29:24.824Z,97.36
2018-03-07T11:30:51.956Z,97.44
2018-03-07T11:32:19.132Z,97.64
2018-03-07T11:33:46.421Z,97.63
2018-03-07T11:35:13.641Z,97.83
2018-03-07T11:36:44.625Z,97.86
2018-03-07T11:38:07.699Z,97.90
2018-03-07T11:39:34.696Z,97.80
2018-03-07T11:41:02.133Z,97.85
2018-03-07T11:42:33.258Z,97.84
2018-03-07T11:43:56.380Z,97.88
2018-03-07T11:45:23.610Z,97.88
2018-03-07T11:46:50.733Z,97.97
2018-03-07T11:48:21.887Z,98.19
2018-03-07T11:49:45.178Z,97.83
2018-03-07T11:51:12.300Z,97.88
2018-03-07T11:52:39.504Z,97.97
2018-03-07T11:54:10.514Z,97.92
2018-03-07T11:55:37.608Z,97.70
2018-03-07T11:57:04.810Z,97.85
2018-03-07T11:58:32.110Z,97.76
2018-03-07T11:59:59.267Z,97.74
2018-03-07T12:01:22.512Z,97.91
2018-03-07T12:02:49.727Z,97.85
2018-03-07T12:04:17.172Z,98.22
2018-03-07T12:05:48.238Z,98.28
2018-03-07T12:07:11.500Z,98.19
2018-03-07T12:08:42.480Z,98.18
2018-03-07T12:10:05.623Z,97.91
2018-03-07T12:11:32.611Z,97.82
2018-03-07T12:12:59.827Z,97.91
2018-03-07T12:14:26.987Z,97.89
2018-03-07T12:15:58.198Z,97.96
2018-03-07T12:17:25.438Z,98.36
2018-03-07T12:18:48.737Z,98.31
2018-03-07T12:20:15.957Z,98.42
2018-03-07T12:21:43.096Z,98.64
2018-03-07T12:23:14.007Z,98.54
2018-03-07T12:24:40.970Z,98.38
2018-03-07T12:26:08.204Z,98.38
2018-03-07T12:27:31.369Z,98.32
2018-03-07T12:28:58.616Z,98.29
2018-03-07T12:30:25.709Z,98.19
2018-03-07T12:31:56.922Z,98.01
2018-03-07T12:33:24.030Z,97.83
2018-03-07T12:34:51.102Z,98.02
2018-03-07T12:36:14.247Z,98.32
2018-03-07T12:37:45.264Z,98.22
2018-03-07T12:39:12.452Z,98.15
2018-03-07T12:40:35.575Z,98.24
2018-03-07T12:42:06.583Z,98.39
2018-03-07T12:43:29.855Z,98.47
2018-03-07T12:44:56.912Z,98.46
2018-03-07T12:46:28.232Z,98.18
2018-03-07T12:47:51.316Z,98.15
2018-03-07T12:49:18.478Z,98.11
2018-03-07T12:50:49.678Z,98.12
2018-03-07T12:52:16.670Z,98.34
2018-03-07T12:53:43.785Z,98.41
2018-03-07T12:55:10.879Z,97.94
2018-03-07T12:56:34.122Z,97.93
2018-03-07T12:58:05.421Z,97.86
2018-03-07T12:59:33.476Z,98.16
2018-03-07T13:00:55.533Z,97.85
2018-03-07T13:02:22.804Z,97.91
2018-03-07T13:03:49.986Z,97.79
2018-03-07T13:05:17.340Z,97.78
2018-03-07T13:06:44.389Z,97.53
2018-03-07T13:08:15.461Z,97.47
2018-03-07T13:09:38.519Z,97.70
2018-03-07T13:11:05.722Z,97.64
2018-03-07T13:12:36.812Z,97.77
2018-03-07T13:14:00.129Z,97.47
2018-03-07T13:15:27.408Z,97.40
2018-03-07T13:16:54.668Z,97.36
2018-03-07T13:18:21.792Z,97.70
2018-03-07T13:19:53.086Z,97.54
2018-03-07T13:21:20.379Z,97.71
2018-03-07T13:22:47.613Z,97.66
2018-03-07T13:24:14.818Z,97.43
2018-03-07T13:25:38.052Z,97.64
2018-03-07T13:27:05.134Z,97.69
2018-03-07T13:28:36.135Z,97.46
2018-03-07T13:29:59.272Z,97.33
2018-03-07T13:31:26.405Z,97.45
2018-03-07T13:32:53.752Z,97.43
2018-03-07T13:34:24.958Z,97.42
2018-03-07T13:35:52.128Z,97.69
2018-03-07T13:37:15.382Z,97.69
2018-03-07T13:38:46.364Z,97.69
2018-03-07T13:40:09.554Z,97.90
2018-03-07T13:41:36.765Z,97.50
2018-03-07T13:43:07.864Z,97.36
2018-03-07T13:44:30.863Z,97.32
2018-03-07T13:46:02.164Z,97.42
2018-03-07T13:47:29.184Z,97.07
2018-03-07T13:48:56.410Z,97.32
2018-03-07T13:50:23.700Z,97.47
2018-03-07T13:51:50.990Z,97.50
2018-03-07T13:53:18.188Z,97.50
2018-03-07T13:54:41.295Z,97.59
2018-03-07T13:56:08.942Z,97.41
2018-03-07T13:57:40.072Z,97.26
2018-03-07T13:59:03.164Z,97.37
2018-03-07T14:00:30.356Z,97.25
2018-03-07T14:01:57.509Z,97.50
2018-03-07T14:03:28.772Z,97.45
2018-03-07T14:04:55.862Z,97.30
2018-03-07T14:06:18.847Z,97.19
2018-03-07T14:07:46.045Z,96.98
2018-03-07T14:09:13.307Z,96.85
2018-03-07T14:10:40.600Z,97.04
2018-03-07T14:12:07.764Z,97.02
2018-03-07T14:13:39.022Z,97.04
2018-03-07T14:15:02.031Z,96.98
2018-03-07T14:16:29.320Z,97.00
2018-03-07T14:17:56.552Z,97.11
2018-03-07T14:19:27.689Z,96.84
2018-03-07T14:20:50.910Z,96.63
2018-03-07T14:22:22.191Z,96.82
2018-03-07T14:23:45.417Z,97.07
2018-03-07T14:25:16.552Z,96.86
2018-03-07T14:26:39.675Z,97.02
2018-03-07T14:28:10.965Z,96.68
2018-03-07T14:29:33.892Z,96.45
2018-03-07T14:31:04.969Z,96.43
2018-03-07T14:32:28.270Z,96.09
2018-03-07T14:33:55.443Z,96.16
2018-03-07T14:35:22.679Z,96.10
2018-03-07T14:36:53.927Z,96.09
2018-03-07T14:38:17.354Z,95.76
2018-03-07T14:39:48.454Z,95.60
2018-03-07T14:41:15.886Z,95.57
2018-03-07T14:42:39.157Z,95.36
2018-03-07T14:44:06.245Z,95.83
2018-03-07T14:45:33.440Z,95.69
2018-03-07T14:47:04.686Z,95.65
2018-03-07T14:48:27.928Z,95.66
2018-03-07T14:49:55.141Z,95.96
2018-03-07T14:51:26.373Z,95.92
2018-03-07T14:52:49.734Z,96.02
2018-03-07T14:54:17.030Z,96.01
2018-03-07T14:55:48.177Z,95.79
2018-03-07T14:57:11.423Z,95.83
2018-03-07T14:58:38.466Z,95.77
2018-03-07T15:00:05.669Z,95.77
2018-03-07T15:01:36.844Z,95.75
2018-03-07T15:03:04.093Z,95.68
2018-03-07T15:04:31.174Z,96.17
2018-03-07T15:05:58.414Z,96.14
2018-03-07T15:07:25.571Z,96.12
2018-03-07T15:08:48.717Z,96.10
2018-03-07T15:10:19.951Z,96.07
2018-03-07T15:11:47.198Z,95.52
2018-03-07T15:13:10.278Z,95.89
2018-03-07T15:14:37.522Z,95.87
2018-03-07T15:16:08.575Z,95.39
2018-03-07T15:17:35.629Z,95.60
2018-03-07T15:18:58.818Z,95.39
2018-03-07T15:20:29.407Z,95.47
2018-03-07T15:21:52.754Z,95.19
2018-03-07T15:23:23.940Z,95.37
2018-03-07T15:24:50.969Z,95.31
2018-03-07T15:26:18.337Z,95.25
2018-03-07T15:27:45.702Z,95.05
2018-03-07T15:29:12.823Z,95.12
2018-03-07T15:30:35.991Z,95.43
2018-03-07T15:32:03.127Z,95.13
2018-03-07T15:33:34.266Z,94.99
2018-03-07T15:35:01.509Z,95.00
2018-03-07T15:36:24.733Z,94.74
2018-03-07T15:37:51.959Z,94.62
2018-03-07T15:39:23.094Z,94.39
2018-03-07T15:40:46.061Z,94.59
2018-03-07T15:42:13.296Z,95.08
2018-03-07T15:43:40.621Z,94.98
2018-03-07T15:45:11.699Z,95.17
2018-03-07T15:46:38.872Z,95.23
2018-03-07T15:48:02.037Z,95.17
2018-03-07T15:49:29.221Z,95.13
2018-03-07T15:50:56.384Z,95.09
2018-03-07T15:52:23.713Z,94.74
2018-03-07T15:53:54.755Z,95.03
2018-03-07T15:55:17.870Z,94.81
2018-03-07T15:56:45.113Z,94.79
2018-03-07T15:58:12.300Z,94.72
2018-03-07T15:59:39.472Z,94.95
2018-03-07T16:01:10.688Z,94.81
2018-03-07T16:02:33.782Z,94.73
2018-03-07T16:04:00.998Z,95.03
2018-03-07T16:05:28.045Z,95.11
2018-03-07T16:06:59.119Z,94.91
2018-03-07T16:08:22.305Z,94.92
2018-03-07T16:09:49.604Z,94.74
2018-03-07T16:11:20.743Z,94.47
2018-03-07T16:12:47.952Z,95.14
2018-03-07T16:14:11.187Z,94.98
2018-03-07T16:15:38.170Z,94.98
2018-03-07T16:17:05.572Z,95.14
2018-03-07T16:18:32.570Z,95.02
2018-03-07T16:19:59.829Z,95.35
2018-03-07T16:21:26.927Z,95.32
2018-03-07T16:22:57.743Z,95.31
2018-03-07T16:24:21.050Z,95.15
2018-03-07T16:25:52.101Z,94.92
2018-03-07T16:27:19.407Z,94.85
2018-03-07T16:28:42.522Z,95.06
2018-03-07T16:30:09.775Z,94.99
2018-03-07T16:31:40.832Z,94.88
2018-03-07T16:33:03.946Z,95.27
2018-03-07T16:34:31.106Z,95.26
2018-03-07T16:35:58.369Z,94.83
2018-03-07T16:37:29.399Z,95.16
2018-03-07T16:38:56.601Z,95.06
2018-03-07T16:40:24.024Z,94.89
2018-03-07T16:41:47.074Z,94.88
2018-03-07T16:43:14.376Z,94.94
2018-03-07T16:44:45.377Z,94.94
2018-03-07T16:46:08.574Z,95.01
2018-03-07T16:47:35.591Z,95.13
2018-03-07T16:49:06.631Z,95.32
2018-03-07T16:50:33.703Z,95.23
2018-03-07T16:51:57.103Z,95.27
2018-03-07T16:54:51.372Z,95.10
2018-03-07T16:56:22.751Z,94.98
2018-03-07T16:57:45.760Z,95.08
2018-03-07T16:59:12.835Z,95.00
2018-03-07T17:00:39.967Z,94.96
2018-03-07T17:02:07.258Z,94.90
2018-03-07T17:03:34.371Z,94.88
2018-03-07T17:05:01.415Z,94.89
2018-03-07T17:06:28.719Z,94.75
2018-03-07T17:08:00.046Z,94.60
2018-03-07T17:09:23.047Z,94.57
2018-03-07T17:10:50.367Z,94.63
2018-03-07T17:12:21.543Z,94.57
2018-03-07T17:13:44.752Z,94.56
2018-03-07T17:15:11.943Z,94.52
2018-03-07T17:16:43.039Z,94.39
2018-03-07T17:18:10.275Z,94.31
2018-03-07T17:19:33.380Z,94.22
2018-03-07T17:21:04.606Z,94.13
2018-03-07T17:22:31.859Z,94.05
2018-03-07T17:23:55.027Z,93.98
2018-03-07T17:25:22.219Z,93.90
2018-03-07T17:26:53.340Z,93.94
2018-03-07T17:28:20.518Z,93.94
2018-03-07T17:29:43.750Z,93.97
2018-03-07T17:31:10.874Z,93.92
2018-03-07T17:32:41.995Z,93.84
2018-03-07T17:34:05.225Z,93.71
2018-03-07T17:35:32.302Z,93.64
2018-03-07T17:36:59.330Z,93.45
2018-03-07T17:38:26.646Z,93.36
2018-03-07T17:39:57.824Z,93.18
2018-03-07T17:41:25.021Z,93.50
2018-03-07T17:42:48.216Z,94.02
2018-03-07T17:44:15.354Z,94.19
2018-03-07T17:45:46.348Z,94.13
2018-03-07T17:47:13.531Z,93.92
2018-03-07T17:48:36.625Z,94.29
2018-03-07T17:50:07.726Z,94.29
2018-03-07T17:51:31.017Z,94.31
2018-03-07T17:52:58.089Z,94.13
2018-03-07T17:54:25.303Z,94.27
2018-03-07T17:55:52.533Z,94.31
2018-03-07T17:57:19.847Z,94.24
2018-03-07T17:58:50.804Z,94.07
2018-03-07T18:00:18.089Z,93.99
2018-03-07T18:01:41.229Z,93.94
2018-03-07T18:03:08.219Z,93.78
2018-03-07T18:04:35.357Z,93.64
2018-03-07T18:06:02.000Z,93.60
2018-03-07T18:07:33.199Z,93.79
2018-03-07T18:08:56.546Z,94.26
2018-03-07T18:10:23.760Z,94.39
2018-03-07T18:11:54.916Z,94.24
2018-03-07T18:13:21.743Z,94.30
2018-03-07T18:14:47.409Z,94.43
2018-03-07T18:16:10.552Z,94.39
2018-03-07T18:17:37.640Z,94.44
2018-03-07T18:19:08.835Z,94.34
2018-03-07T18:20:32.222Z,94.24
2018-03-07T18:21:59.419Z,94.14
2018-03-07T18:23:26.777Z,93.97
2018-03-07T18:24:53.776Z,93.85
2018-03-07T18:26:24.857Z,93.86
2018-03-07T18:27:48.224Z,93.67
2018-03-07T18:29:19.198Z,93.69
2018-03-07T18:30:46.325Z,93.68
2018-03-07T18:32:13.648Z,93.55
2018-03-07T18:33:37.110Z,93.39
2018-03-07T18:35:03.961Z,93.47
2018-03-07T18:36:31.234Z,93.08
2018-03-07T18:37:58.335Z,93.48
2018-03-07T18:39:29.575Z,93.54
2018-03-07T18:40:57.660Z,93.36
2018-03-07T18:42:19.661Z,93.39
2018-03-07T18:43:46.852Z,93.96
2018-03-07T18:45:13.923Z,93.80
2018-03-07T18:46:41.033Z,94.22
2018-03-07T18:48:12.040Z,94.28